Ada, West Virginia
Current Conditions -  °F | °C
As of 1:52 PM on Tuesday 27 Jan 2015 (Local Time) from KBLF Reporting Station
Clear Clear  
Wind Chill: 20°   Ceiling: Unl
Heat Index: 30°   Visibility: 10mi
Dew Point:   Wind: 14mph
Humidity: 40%   Direction: 300°WNW
Pressure: 29.81"   Gusts: 22mph
Location:  37.2994°N, 81.226°W
Report Text: KBLF 271852Z AUTO 30012G19KT 10SM CLR M01/M13 A2981 RMK AO2 SLP119 T10111133
Loading
Personal Weather Stations






























Interactive Weather Map New forecast layout! Learn more

10-Day Weather Forecast

Advertisements
Track Severe Weather on mobile